sensor_id;sensor_type;location;lat;lon;timestamp;temperature;humidity
2543;DHT22;1116;51.502;7.414;2024-01-30T00:00:34;10.20;18.60
2543;DHT22;1116;51.502;7.414;2024-01-30T00:03:04;10.20;18.60
2543;DHT22;1116;51.502;7.414;2024-01-30T00:05:34;10.20;18.70
2543;DHT22;1116;51.502;7.414;2024-01-30T00:08:05;10.10;18.90
2543;DHT22;1116;51.502;7.414;2024-01-30T00:10:36;10.10;18.90
2543;DHT22;1116;51.502;7.414;2024-01-30T00:13:08;10.20;18.90
2543;DHT22;1116;51.502;7.414;2024-01-30T00:15:39;10.10;18.70
2543;DHT22;1116;51.502;7.414;2024-01-30T00:18:09;10.10;19.10
2543;DHT22;1116;51.502;7.414;2024-01-30T00:20:39;10.10;18.90
2543;DHT22;1116;51.502;7.414;2024-01-30T00:23:09;10.10;18.70
2543;DHT22;1116;51.502;7.414;2024-01-30T00:25:39;10.10;18.50
2543;DHT22;1116;51.502;7.414;2024-01-30T00:28:12;10.10;18.50
2543;DHT22;1116;51.502;7.414;2024-01-30T00:30:42;10.10;18.40
2543;DHT22;1116;51.502;7.414;2024-01-30T00:33:12;10.10;18.70
2543;DHT22;1116;51.502;7.414;2024-01-30T00:35:43;10.00;19.30
2543;DHT22;1116;51.502;7.414;2024-01-30T00:38:13;10.00;18.70
2543;DHT22;1116;51.502;7.414;2024-01-30T00:40:43;10.00;18.80
2543;DHT22;1116;51.502;7.414;2024-01-30T00:43:15;10.00;18.60
2543;DHT22;1116;51.502;7.414;2024-01-30T00:45:47;10.00;18.90
2543;DHT22;1116;51.502;7.414;2024-01-30T00:48:18;10.00;18.90
2543;DHT22;1116;51.502;7.414;2024-01-30T00:50:48;10.00;18.80
2543;DHT22;1116;51.502;7.414;2024-01-30T00:53:18;10.00;18.90
2543;DHT22;1116;51.502;7.414;2024-01-30T00:55:48;10.00;18.70
2543;DHT22;1116;51.502;7.414;2024-01-30T00:58:21;10.10;18.50
2543;DHT22;1116;51.502;7.414;2024-01-30T01:00:51;10.10;18.20
2543;DHT22;1116;51.502;7.414;2024-01-30T01:03:21;10.10;18.20
2543;DHT22;1116;51.502;7.414;2024-01-30T01:05:51;10.10;18.00
2543;DHT22;1116;51.502;7.414;2024-01-30T01:08:20;10.00;18.10
2543;DHT22;1116;51.502;7.414;2024-01-30T01:10:50;9.80;18.60
2543;DHT22;1116;51.502;7.414;2024-01-30T01:13:23;10.00;17.80
2543;DHT22;1116;51.502;7.414;2024-01-30T01:15:53;10.00;18.20
2543;DHT22;1116;51.502;7.414;2024-01-30T01:18:23;10.00;18.10
2543;DHT22;1116;51.502;7.414;2024-01-30T01:20:54;10.00;17.80
2543;DHT22;1116;51.502;7.414;2024-01-30T01:23:24;10.00;17.80
2543;DHT22;1116;51.502;7.414;2024-01-30T01:25:54;10.00;18.10
2543;DHT22;1116;51.502;7.414;2024-01-30T01:28:29;9.90;18.70
2543;DHT22;1116;51.502;7.414;2024-01-30T01:30:59;9.90;18.80
2543;DHT22;1116;51.502;7.414;2024-01-30T01:33:33;9.90;19.00
2543;DHT22;1116;51.502;7.414;2024-01-30T01:36:05;9.90;19.20
2543;DHT22;1116;51.502;7.414;2024-01-30T01:38:35;9.90;19.30
2543;DHT22;1116;51.502;7.414;2024-01-30T01:41:05;9.90;19.40
2543;DHT22;1116;51.502;7.414;2024-01-30T01:43:37;10.20;18.60
2543;DHT22;1116;51.502;7.414;2024-01-30T01:46:08;9.90;18.80
2543;DHT22;1116;51.502;7.414;2024-01-30T01:48:38;9.90;18.60
2543;DHT22;1116;51.502;7.414;2024-01-30T01:51:09;9.90;19.10
2543;DHT22;1116;51.502;7.414;2024-01-30T01:53:40;9.90;19.00
2543;DHT22;1116;51.502;7.414;2024-01-30T01:56:10;9.80;19.30
2543;DHT22;1116;51.502;7.414;2024-01-30T01:58:44;9.90;19.90
2543;DHT22;1116;51.502;7.414;2024-01-30T02:01:16;9.80;20.00
2543;DHT22;1116;51.502;7.414;2024-01-30T02:03:48;9.80;20.40
2543;DHT22;1116;51.502;7.414;2024-01-30T02:06:19;9.70;20.60
2543;DHT22;1116;51.502;7.414;2024-01-30T02:08:48;9.80;20.50
2543;DHT22;1116;51.502;7.414;2024-01-30T02:11:19;9.80;20.50
2543;DHT22;1116;51.502;7.414;2024-01-30T02:13:52;9.80;20.10
2543;DHT22;1116;51.502;7.414;2024-01-30T02:16:22;9.90;20.20
2543;DHT22;1116;51.502;7.414;2024-01-30T02:18:52;9.90;20.10
2543;DHT22;1116;51.502;7.414;2024-01-30T02:21:25;9.90;20.10
2543;DHT22;1116;51.502;7.414;2024-01-30T02:23:55;9.90;20.20
2543;DHT22;1116;51.502;7.414;2024-01-30T02:26:26;10.20;19.50
2543;DHT22;1116;51.502;7.414;2024-01-30T02:28:55;9.90;19.80
2543;DHT22;1116;51.502;7.414;2024-01-30T02:31:26;9.90;20.00
2543;DHT22;1116;51.502;7.414;2024-01-30T02:33:55;9.90;19.70
2543;DHT22;1116;51.502;7.414;2024-01-30T02:36:28;9.90;19.60
2543;DHT22;1116;51.502;7.414;2024-01-30T02:38:58;9.80;19.70
2543;DHT22;1116;51.502;7.414;2024-01-30T02:41:28;9.80;19.80
2543;DHT22;1116;51.502;7.414;2024-01-30T02:43:57;9.90;19.90
2543;DHT22;1116;51.502;7.414;2024-01-30T02:46:27;9.80;19.90
2543;DHT22;1116;51.502;7.414;2024-01-30T02:48:58;9.90;19.90
2543;DHT22;1116;51.502;7.414;2024-01-30T02:51:31;9.90;19.90
2543;DHT22;1116;51.502;7.414;2024-01-30T02:54:01;9.90;20.10
2543;DHT22;1116;51.502;7.414;2024-01-30T02:56:31;9.90;20.10
2543;DHT22;1116;51.502;7.414;2024-01-30T02:59:00;9.80;20.40
2543;DHT22;1116;51.502;7.414;2024-01-30T03:01:30;9.90;20.40
2543;DHT22;1116;51.502;7.414;2024-01-30T03:04:00;9.90;20.00
2543;DHT22;1116;51.502;7.414;2024-01-30T03:06:33;9.90;20.10
2543;DHT22;1116;51.502;7.414;2024-01-30T03:09:03;9.80;20.20
2543;DHT22;1116;51.502;7.414;2024-01-30T03:11:33;9.90;20.10
2543;DHT22;1116;51.502;7.414;2024-01-30T03:14:03;9.90;19.70
2543;DHT22;1116;51.502;7.414;2024-01-30T03:16:33;9.90;19.90
2543;DHT22;1116;51.502;7.414;2024-01-30T03:19:03;10.00;18.80
2543;DHT22;1116;51.502;7.414;2024-01-30T03:21:37;9.90;19.60
2543;DHT22;1116;51.502;7.414;2024-01-30T03:24:07;10.00;19.00
2543;DHT22;1116;51.502;7.414;2024-01-30T03:26:37;10.00;18.80
2543;DHT22;1116;51.502;7.414;2024-01-30T03:29:07;10.00;18.70
2543;DHT22;1116;51.502;7.414;2024-01-30T03:31:37;10.00;19.00
2543;DHT22;1116;51.502;7.414;2024-01-30T03:34:07;10.00;18.80
2543;DHT22;1116;51.502;7.414;2024-01-30T03:36:39;9.90;19.70
2543;DHT22;1116;51.502;7.414;2024-01-30T03:39:09;10.00;19.00
2543;DHT22;1116;51.502;7.414;2024-01-30T03:41:42;10.00;18.80
2543;DHT22;1116;51.502;7.414;2024-01-30T03:44:12;10.00;18.70
2543;DHT22;1116;51.502;7.414;2024-01-30T03:46:42;10.00;18.60
2543;DHT22;1116;51.502;7.414;2024-01-30T03:49:12;10.10;18.30
2543;DHT22;1116;51.502;7.414;2024-01-30T03:51:45;10.10;18.10
2543;DHT22;1116;51.502;7.414;2024-01-30T03:54:15;10.10;18.10
2543;DHT22;1116;51.502;7.414;2024-01-30T03:56:45;10.10;18.20
2543;DHT22;1116;51.502;7.414;2024-01-30T03:59:15;10.10;18.10
2543;DHT22;1116;51.502;7.414;2024-01-30T04:01:49;10.10;17.80
2543;DHT22;1116;51.502;7.414;2024-01-30T04:04:19;10.00;18.40
2543;DHT22;1116;51.502;7.414;2024-01-30T04:06:52;10.00;18.00
2543;DHT22;1116;51.502;7.414;2024-01-30T04:09:22;10.00;17.80
2543;DHT22;1116;51.502;7.414;2024-01-30T04:11:53;10.00;18.30
2543;DHT22;1116;51.502;7.414;2024-01-30T04:14:24;10.00;18.00
2543;DHT22;1116;51.502;7.414;2024-01-30T04:16:54;10.00;18.30
2543;DHT22;1116;51.502;7.414;2024-01-30T04:19:24;10.00;18.10
2543;DHT22;1116;51.502;7.414;2024-01-30T04:22:00;10.00;18.40
2543;DHT22;1116;51.502;7.414;2024-01-30T04:24:29;10.00;18.10
2543;DHT22;1116;51.502;7.414;2024-01-30T04:26:59;9.90;18.80
2543;DHT22;1116;51.502;7.414;2024-01-30T04:29:29;9.90;18.70
2543;DHT22;1116;51.502;7.414;2024-01-30T04:32:00;9.80;19.50
2543;DHT22;1116;51.502;7.414;2024-01-30T04:34:30;9.80;19.80
2543;DHT22;1116;51.502;7.414;2024-01-30T04:37:03;9.80;19.70
2543;DHT22;1116;51.502;7.414;2024-01-30T04:39:33;9.80;20.30
2543;DHT22;1116;51.502;7.414;2024-01-30T04:42:05;9.80;20.50
2543;DHT22;1116;51.502;7.414;2024-01-30T04:44:35;9.80;20.30
2543;DHT22;1116;51.502;7.414;2024-01-30T04:47:05;9.80;20.30
2543;DHT22;1116;51.502;7.414;2024-01-30T04:49:37;9.90;20.10
2543;DHT22;1116;51.502;7.414;2024-01-30T04:52:10;9.80;20.70
2543;DHT22;1116;51.502;7.414;2024-01-30T04:54:40;9.80;20.80
2543;DHT22;1116;51.502;7.414;2024-01-30T04:57:10;9.80;20.80
2543;DHT22;1116;51.502;7.414;2024-01-30T04:59:40;9.80;20.50
2543;DHT22;1116;51.502;7.414;2024-01-30T05:02:10;9.80;20.70
2543;DHT22;1116;51.502;7.414;2024-01-30T05:04:41;9.80;20.50
2543;DHT22;1116;51.502;7.414;2024-01-30T05:07:13;9.80;20.30
2543;DHT22;1116;51.502;7.414;2024-01-30T05:09:43;9.90;20.50
2543;DHT22;1116;51.502;7.414;2024-01-30T05:12:13;9.80;20.40
2543;DHT22;1116;51.502;7.414;2024-01-30T05:14:43;9.90;20.40
2543;DHT22;1116;51.502;7.414;2024-01-30T05:17:13;9.90;20.60
2543;DHT22;1116;51.502;7.414;2024-01-30T05:19:43;9.90;20.60
2543;DHT22;1116;51.502;7.414;2024-01-30T05:22:16;9.90;20.50
2543;DHT22;1116;51.502;7.414;2024-01-30T05:24:46;9.90;20.20
2543;DHT22;1116;51.502;7.414;2024-01-30T05:27:16;9.90;20.20
2543;DHT22;1116;51.502;7.414;2024-01-30T05:29:46;9.90;20.00
2543;DHT22;1116;51.502;7.414;2024-01-30T05:32:16;9.80;20.30
2543;DHT22;1116;51.502;7.414;2024-01-30T05:34:46;9.90;20.40
2543;DHT22;1116;51.502;7.414;2024-01-30T05:37:20;9.90;20.20
2543;DHT22;1116;51.502;7.414;2024-01-30T05:39:50;9.80;20.10
2543;DHT22;1116;51.502;7.414;2024-01-30T05:42:20;9.80;19.90
2543;DHT22;1116;51.502;7.414;2024-01-30T05:44:50;9.80;19.80
2543;DHT22;1116;51.502;7.414;2024-01-30T05:47:20;9.80;20.10
2543;DHT22;1116;51.502;7.414;2024-01-30T05:49:50;9.80;19.30
2543;DHT22;1116;51.502;7.414;2024-01-30T05:52:23;9.80;19.10
2543;DHT22;1116;51.502;7.414;2024-01-30T05:54:53;9.60;19.30
2543;DHT22;1116;51.502;7.414;2024-01-30T05:57:22;9.60;20.10
2543;DHT22;1116;51.502;7.414;2024-01-30T05:59:52;9.50;19.60
2543;DHT22;1116;51.502;7.414;2024-01-30T06:02:22;9.50;20.10
2543;DHT22;1116;51.502;7.414;2024-01-30T06:04:52;9.40;19.80
2543;DHT22;1116;51.502;7.414;2024-01-30T06:07:24;9.40;20.90
2543;DHT22;1116;51.502;7.414;2024-01-30T06:10:00;9.40;20.30
2543;DHT22;1116;51.502;7.414;2024-01-30T06:12:30;9.40;20.90
2543;DHT22;1116;51.502;7.414;2024-01-30T06:15:00;9.30;20.90
2543;DHT22;1116;51.502;7.414;2024-01-30T06:17:30;9.30;20.60
2543;DHT22;1116;51.502;7.414;2024-01-30T06:20:00;9.30;20.90
2543;DHT22;1116;51.502;7.414;2024-01-30T06:22:33;9.30;22.70
2543;DHT22;1116;51.502;7.414;2024-01-30T06:25:04;9.30;23.40
2543;DHT22;1116;51.502;7.414;2024-01-30T06:27:34;9.40;23.50
2543;DHT22;1116;51.502;7.414;2024-01-30T06:30:05;9.50;23.10
2543;DHT22;1116;51.502;7.414;2024-01-30T06:32:35;9.50;23.00
2543;DHT22;1116;51.502;7.414;2024-01-30T06:35:06;9.50;23.40
2543;DHT22;1116;51.502;7.414;2024-01-30T06:37:40;9.60;22.70
2543;DHT22;1116;51.502;7.414;2024-01-30T06:40:10;9.60;22.90
2543;DHT22;1116;51.502;7.414;2024-01-30T06:42:40;9.70;22.70
2543;DHT22;1116;51.502;7.414;2024-01-30T06:45:10;9.70;22.90
2543;DHT22;1116;51.502;7.414;2024-01-30T06:47:40;9.70;22.20
2543;DHT22;1116;51.502;7.414;2024-01-30T06:50:10;9.80;22.20
2543;DHT22;1116;51.502;7.414;2024-01-30T06:52:43;9.70;22.80
2543;DHT22;1116;51.502;7.414;2024-01-30T06:55:13;9.80;22.70
2543;DHT22;1116;51.502;7.414;2024-01-30T06:57:43;9.80;22.50
2543;DHT22;1116;51.502;7.414;2024-01-30T07:00:16;9.80;22.30
2543;DHT22;1116;51.502;7.414;2024-01-30T07:02:46;9.80;22.20
2543;DHT22;1116;51.502;7.414;2024-01-30T07:05:16;9.90;22.20
2543;DHT22;1116;51.502;7.414;2024-01-30T07:07:51;9.90;21.70
2543;DHT22;1116;51.502;7.414;2024-01-30T07:10:21;9.90;21.60
2543;DHT22;1116;51.502;7.414;2024-01-30T07:12:51;10.00;20.50
2543;DHT22;1116;51.502;7.414;2024-01-30T07:15:21;10.00;20.20
2543;DHT22;1116;51.502;7.414;2024-01-30T07:17:51;10.00;20.10
2543;DHT22;1116;51.502;7.414;2024-01-30T07:20:21;10.00;20.40
2543;DHT22;1116;51.502;7.414;2024-01-30T07:22:54;10.30;21.00
2543;DHT22;1116;51.502;7.414;2024-01-30T07:25:24;10.00;21.40
2543;DHT22;1116;51.502;7.414;2024-01-30T07:27:57;10.00;21.50
2543;DHT22;1116;51.502;7.414;2024-01-30T07:30:27;10.10;22.00
2543;DHT22;1116;51.502;7.414;2024-01-30T07:32:56;10.20;21.30
2543;DHT22;1116;51.502;7.414;2024-01-30T07:35:26;10.20;21.20
2543;DHT22;1116;51.502;7.414;2024-01-30T07:37:59;10.30;21.00
2543;DHT22;1116;51.502;7.414;2024-01-30T07:40:29;10.30;20.70
2543;DHT22;1116;51.502;7.414;2024-01-30T07:43:00;10.40;20.30
2543;DHT22;1116;51.502;7.414;2024-01-30T07:45:30;10.40;20.00
2543;DHT22;1116;51.502;7.414;2024-01-30T07:48:01;10.50;19.90
2543;DHT22;1116;51.502;7.414;2024-01-30T07:50:30;10.40;19.80
2543;DHT22;1116;51.502;7.414;2024-01-30T07:53:03;10.50;20.30
2543;DHT22;1116;51.502;7.414;2024-01-30T07:55:33;10.40;20.50
2543;DHT22;1116;51.502;7.414;2024-01-30T07:58:01;10.40;20.60
2543;DHT22;1116;51.502;7.414;2024-01-30T08:00:31;10.50;20.80
2543;DHT22;1116;51.502;7.414;2024-01-30T08:03:01;10.50;21.00
2543;DHT22;1116;51.502;7.414;2024-01-30T08:05:31;10.40;21.00
2543;DHT22;1116;51.502;7.414;2024-01-30T08:08:04;10.50;21.10
2543;DHT22;1116;51.502;7.414;2024-01-30T08:10:34;10.60;20.90
2543;DHT22;1116;51.502;7.414;2024-01-30T08:13:04;10.60;20.70
2543;DHT22;1116;51.502;7.414;2024-01-30T08:15:35;10.70;20.50
2543;DHT22;1116;51.502;7.414;2024-01-30T08:18:06;10.80;20.50
2543;DHT22;1116;51.502;7.414;2024-01-30T08:20:36;10.80;19.90
2543;DHT22;1116;51.502;7.414;2024-01-30T08:23:11;10.90;19.90
2543;DHT22;1116;51.502;7.414;2024-01-30T08:25:41;10.90;19.90
2543;DHT22;1116;51.502;7.414;2024-01-30T08:28:11;10.90;19.60
2543;DHT22;1116;51.502;7.414;2024-01-30T08:30:47;11.00;20.10
2543;DHT22;1116;51.502;7.414;2024-01-30T08:33:17;11.00;19.70
2543;DHT22;1116;51.502;7.414;2024-01-30T08:35:46;11.10;19.10
2543;DHT22;1116;51.502;7.414;2024-01-30T08:38:19;11.10;18.90
2543;DHT22;1116;51.502;7.414;2024-01-30T08:40:59;11.10;18.70
2543;DHT22;1116;51.502;7.414;2024-01-30T08:43:35;11.00;18.40
2543;DHT22;1116;51.502;7.414;2024-01-30T08:46:06;11.20;18.70
2543;DHT22;1116;51.502;7.414;2024-01-30T08:48:36;11.50;18.70
2543;DHT22;1116;51.502;7.414;2024-01-30T08:51:09;11.30;18.10
2543;DHT22;1116;51.502;7.414;2024-01-30T08:53:45;11.30;17.70
2543;DHT22;1116;51.502;7.414;2024-01-30T08:56:15;11.40;17.80
2543;DHT22;1116;51.502;7.414;2024-01-30T08:58:47;11.40;17.50
2543;DHT22;1116;51.502;7.414;2024-01-30T09:04:42;11.50;16.40
2543;DHT22;1116;51.502;7.414;2024-01-30T09:07:26;11.50;16.60
2543;DHT22;1116;51.502;7.414;2024-01-30T09:09:58;11.50;16.70
2543;DHT22;1116;51.502;7.414;2024-01-30T09:12:28;11.50;16.90
2543;DHT22;1116;51.502;7.414;2024-01-30T09:14:58;11.60;17.00
2543;DHT22;1116;51.502;7.414;2024-01-30T09:17:28;11.60;16.70
2543;DHT22;1116;51.502;7.414;2024-01-30T09:20:00;11.60;16.40
2543;DHT22;1116;51.502;7.414;2024-01-30T09:22:30;11.60;16.20
2543;DHT22;1116;51.502;7.414;2024-01-30T09:25:04;11.60;15.80
2543;DHT22;1116;51.502;7.414;2024-01-30T09:27:34;11.70;16.00
2543;DHT22;1116;51.502;7.414;2024-01-30T09:30:06;11.70;15.70
2543;DHT22;1116;51.502;7.414;2024-01-30T09:32:36;11.80;15.70
2543;DHT22;1116;51.502;7.414;2024-01-30T09:35:07;11.80;15.70
2543;DHT22;1116;51.502;7.414;2024-01-30T09:37:37;11.80;15.70
2543;DHT22;1116;51.502;7.414;2024-01-30T09:40:10;11.80;15.70
2543;DHT22;1116;51.502;7.414;2024-01-30T09:42:47;11.80;15.70
2543;DHT22;1116;51.502;7.414;2024-01-30T09:45:25;11.80;15.70
2543;DHT22;1116;51.502;7.414;2024-01-30T09:47:56;11.80;15.70
2543;DHT22;1116;51.502;7.414;2024-01-30T09:50:29;11.80;15.70
2543;DHT22;1116;51.502;7.414;2024-01-30T09:52:59;11.80;15.70
2543;DHT22;1116;51.502;7.414;2024-01-30T09:55:35;11.80;15.70
2543;DHT22;1116;51.502;7.414;2024-01-30T09:58:06;11.90;15.40
2543;DHT22;1116;51.502;7.414;2024-01-30T10:00:36;11.90;15.70
2543;DHT22;1116;51.502;7.414;2024-01-30T10:03:06;11.80;15.70
2543;DHT22;1116;51.502;7.414;2024-01-30T10:05:36;11.90;14.90
2543;DHT22;1116;51.502;7.414;2024-01-30T10:08:08;11.90;15.40
2543;DHT22;1116;51.502;7.414;2024-01-30T10:10:46;11.90;15.30
2543;DHT22;1116;51.502;7.414;2024-01-30T10:13:16;12.00;14.80
2543;DHT22;1116;51.502;7.414;2024-01-30T10:15:47;12.00;15.00
2543;DHT22;1116;51.502;7.414;2024-01-30T10:18:24;12.00;14.90
2543;DHT22;1116;51.502;7.414;2024-01-30T10:21:07;12.10;14.70
2543;DHT22;1116;51.502;7.414;2024-01-30T10:23:38;12.10;14.20
2543;DHT22;1116;51.502;7.414;2024-01-30T10:26:11;12.20;14.30
2543;DHT22;1116;51.502;7.414;2024-01-30T10:28:40;12.20;14.40
2543;DHT22;1116;51.502;7.414;2024-01-30T10:31:10;12.30;13.90
2543;DHT22;1116;51.502;7.414;2024-01-30T10:33:48;12.40;14.00
2543;DHT22;1116;51.502;7.414;2024-01-30T10:36:28;12.50;13.60
2543;DHT22;1116;51.502;7.414;2024-01-30T10:39:00;12.50;13.30
2543;DHT22;1116;51.502;7.414;2024-01-30T10:41:43;12.60;12.90
2543;DHT22;1116;51.502;7.414;2024-01-30T10:44:17;12.70;12.90
2543;DHT22;1116;51.502;7.414;2024-01-30T10:47:00;12.80;12.70
2543;DHT22;1116;51.502;7.414;2024-01-30T10:49:33;12.80;12.00
2543;DHT22;1116;51.502;7.414;2024-01-30T10:52:04;12.80;12.20
2543;DHT22;1116;51.502;7.414;2024-01-30T10:54:35;12.80;11.80
2543;DHT22;1116;51.502;7.414;2024-01-30T10:57:15;12.90;12.00
2543;DHT22;1116;51.502;7.414;2024-01-30T10:59:46;12.90;11.50
2543;DHT22;1116;51.502;7.414;2024-01-30T11:02:17;12.90;11.20
2543;DHT22;1116;51.502;7.414;2024-01-30T11:04:47;13.00;11.60
2543;DHT22;1116;51.502;7.414;2024-01-30T11:07:19;13.00;11.10
2543;DHT22;1116;51.502;7.414;2024-01-30T11:09:54;13.00;11.30
2543;DHT22;1116;51.502;7.414;2024-01-30T11:12:38;13.00;11.30
2543;DHT22;1116;51.502;7.414;2024-01-30T11:15:13;13.10;11.30
2543;DHT22;1116;51.502;7.414;2024-01-30T11:17:51;13.20;11.00
2543;DHT22;1116;51.502;7.414;2024-01-30T11:20:32;13.40;10.70
2543;DHT22;1116;51.502;7.414;2024-01-30T11:26:50;13.60;10.90
2543;DHT22;1116;51.502;7.414;2024-01-30T11:30:46;13.70;9.90
2543;DHT22;1116;51.502;7.414;2024-01-30T11:33:57;14.00;10.10
2543;DHT22;1116;51.502;7.414;2024-01-30T11:36:27;14.00;9.30
2543;DHT22;1116;51.502;7.414;2024-01-30T11:38:58;14.00;9.50
2543;DHT22;1116;51.502;7.414;2024-01-30T11:41:29;14.10;9.50
2543;DHT22;1116;51.502;7.414;2024-01-30T11:44:00;14.10;9.30
2543;DHT22;1116;51.502;7.414;2024-01-30T11:46:35;14.40;10.20
2543;DHT22;1116;51.502;7.414;2024-01-30T11:49:05;14.50;9.90
2543;DHT22;1116;51.502;7.414;2024-01-30T11:51:36;14.10;10.10
2543;DHT22;1116;51.502;7.414;2024-01-30T11:54:06;14.20;10.00
2543;DHT22;1116;51.502;7.414;2024-01-30T11:56:37;14.20;10.10
2543;DHT22;1116;51.502;7.414;2024-01-30T11:59:07;14.20;10.30
2543;DHT22;1116;51.502;7.414;2024-01-30T12:01:39;14.20;10.20
2543;DHT22;1116;51.502;7.414;2024-01-30T12:04:09;14.10;10.20
2543;DHT22;1116;51.502;7.414;2024-01-30T12:06:39;14.10;10.80
2543;DHT22;1116;51.502;7.414;2024-01-30T12:09:10;14.10;10.80
2543;DHT22;1116;51.502;7.414;2024-01-30T12:11:44;14.10;11.00
2543;DHT22;1116;51.502;7.414;2024-01-30T12:14:15;14.00;11.60
2543;DHT22;1116;51.502;7.414;2024-01-30T12:16:51;14.00;11.60
2543;DHT22;1116;51.502;7.414;2024-01-30T12:19:24;14.00;12.10
2543;DHT22;1116;51.502;7.414;2024-01-30T12:21:55;14.00;11.80
2543;DHT22;1116;51.502;7.414;2024-01-30T12:24:27;14.00;12.10
2543;DHT22;1116;51.502;7.414;2024-01-30T12:26:57;14.00;12.30
2543;DHT22;1116;51.502;7.414;2024-01-30T12:29:32;14.00;12.40
2543;DHT22;1116;51.502;7.414;2024-01-30T12:32:08;14.40;12.80
2543;DHT22;1116;51.502;7.414;2024-01-30T12:34:40;14.00;12.40
2543;DHT22;1116;51.502;7.414;2024-01-30T12:37:26;14.00;12.60
2543;DHT22;1116;51.502;7.414;2024-01-30T12:39:56;13.90;12.70
2543;DHT22;1116;51.502;7.414;2024-01-30T12:42:27;13.90;13.10
2543;DHT22;1116;51.502;7.414;2024-01-30T12:44:57;13.80;13.10
2543;DHT22;1116;51.502;7.414;2024-01-30T12:47:30;13.80;13.90
2543;DHT22;1116;51.502;7.414;2024-01-30T12:50:00;14.00;14.30
2543;DHT22;1116;51.502;7.414;2024-01-30T12:52:30;13.60;14.90
2543;DHT22;1116;51.502;7.414;2024-01-30T12:55:00;13.60;15.60
2543;DHT22;1116;51.502;7.414;2024-01-30T12:57:31;13.60;15.70
2543;DHT22;1116;51.502;7.414;2024-01-30T13:00:01;13.70;15.50
2543;DHT22;1116;51.502;7.414;2024-01-30T13:02:34;13.70;15.10
2543;DHT22;1116;51.502;7.414;2024-01-30T13:05:05;13.80;15.00
2543;DHT22;1116;51.502;7.414;2024-01-30T13:07:35;13.80;15.10
2543;DHT22;1116;51.502;7.414;2024-01-30T13:10:06;13.70;15.40
2543;DHT22;1116;51.502;7.414;2024-01-30T13:12:36;13.70;15.70
2543;DHT22;1116;51.502;7.414;2024-01-30T13:15:06;13.90;15.30
2543;DHT22;1116;51.502;7.414;2024-01-30T13:17:41;13.70;15.60
2543;DHT22;1116;51.502;7.414;2024-01-30T13:20:14;13.70;15.70
2543;DHT22;1116;51.502;7.414;2024-01-30T13:22:52;13.70;15.70
2543;DHT22;1116;51.502;7.414;2024-01-30T13:25:22;13.40;15.50
2543;DHT22;1116;51.502;7.414;2024-01-30T13:27:52;13.60;15.70
2543;DHT22;1116;51.502;7.414;2024-01-30T13:30:22;13.60;16.00
2543;DHT22;1116;51.502;7.414;2024-01-30T13:32:54;13.50;16.00
2543;DHT22;1116;51.502;7.414;2024-01-30T13:35:25;13.50;16.50
2543;DHT22;1116;51.502;7.414;2024-01-30T13:37:55;13.50;16.50
2543;DHT22;1116;51.502;7.414;2024-01-30T13:40:27;13.50;16.80
2543;DHT22;1116;51.502;7.414;2024-01-30T13:42:57;13.50;16.80
2543;DHT22;1116;51.502;7.414;2024-01-30T13:45:27;13.40;16.80
2543;DHT22;1116;51.502;7.414;2024-01-30T13:48:00;13.30;16.80
2543;DHT22;1116;51.502;7.414;2024-01-30T13:50:33;13.30;16.70
2543;DHT22;1116;51.502;7.414;2024-01-30T14:00:43;13.30;17.40
2543;DHT22;1116;51.502;7.414;2024-01-30T14:03:37;13.30;17.50
2543;DHT22;1116;51.502;7.414;2024-01-30T14:06:07;13.30;17.60
2543;DHT22;1116;51.502;7.414;2024-01-30T14:08:37;13.30;17.50
2543;DHT22;1116;51.502;7.414;2024-01-30T14:11:12;13.30;17.80
2543;DHT22;1116;51.502;7.414;2024-01-30T14:13:42;13.30;17.90
2543;DHT22;1116;51.502;7.414;2024-01-30T14:16:12;13.40;17.60
2543;DHT22;1116;51.502;7.414;2024-01-30T14:18:47;13.30;17.60
2543;DHT22;1116;51.502;7.414;2024-01-30T14:21:17;13.30;17.70
2543;DHT22;1116;51.502;7.414;2024-01-30T14:23:51;13.30;18.00
2543;DHT22;1116;51.502;7.414;2024-01-30T14:26:20;13.20;18.20
2543;DHT22;1116;51.502;7.414;2024-01-30T14:28:50;13.20;18.40
2543;DHT22;1116;51.502;7.414;2024-01-30T14:31:22;13.20;18.40
2543;DHT22;1116;51.502;7.414;2024-01-30T14:33:55;13.20;18.50
2543;DHT22;1116;51.502;7.414;2024-01-30T14:36:26;13.20;18.30
2543;DHT22;1116;51.502;7.414;2024-01-30T14:38:56;13.20;18.50
2543;DHT22;1116;51.502;7.414;2024-01-30T14:41:26;13.20;18.40
2543;DHT22;1116;51.502;7.414;2024-01-30T14:43:56;13.20;18.40
2543;DHT22;1116;51.502;7.414;2024-01-30T14:46:26;13.20;18.40
2543;DHT22;1116;51.502;7.414;2024-01-30T14:48:59;13.20;18.90
2543;DHT22;1116;51.502;7.414;2024-01-30T14:51:32;13.20;18.50
2543;DHT22;1116;51.502;7.414;2024-01-30T14:54:02;13.20;18.30
2543;DHT22;1116;51.502;7.414;2024-01-30T14:56:33;13.20;18.60
2543;DHT22;1116;51.502;7.414;2024-01-30T14:59:03;13.20;18.10
2543;DHT22;1116;51.502;7.414;2024-01-30T15:01:33;13.30;18.20
2543;DHT22;1116;51.502;7.414;2024-01-30T15:04:05;13.20;18.20
2543;DHT22;1116;51.502;7.414;2024-01-30T15:06:35;13.10;18.80
2543;DHT22;1116;51.502;7.414;2024-01-30T15:09:07;13.20;18.60
2543;DHT22;1116;51.502;7.414;2024-01-30T15:11:38;13.20;18.10
2543;DHT22;1116;51.502;7.414;2024-01-30T15:14:07;13.10;18.20
2543;DHT22;1116;51.502;7.414;2024-01-30T15:16:37;13.50;18.60
2543;DHT22;1116;51.502;7.414;2024-01-30T15:19:10;13.10;18.00
2543;DHT22;1116;51.502;7.414;2024-01-30T15:21:40;13.20;18.10
2543;DHT22;1116;51.502;7.414;2024-01-30T15:24:10;13.10;17.90
2543;DHT22;1116;51.502;7.414;2024-01-30T15:26:42;13.10;17.80
2543;DHT22;1116;51.502;7.414;2024-01-30T15:29:12;13.10;17.80
2543;DHT22;1116;51.502;7.414;2024-01-30T15:31:42;13.10;18.00
2543;DHT22;1116;51.502;7.414;2024-01-30T15:34:15;13.10;17.30
2543;DHT22;1116;51.502;7.414;2024-01-30T15:36:45;13.10;17.50
2543;DHT22;1116;51.502;7.414;2024-01-30T15:39:15;13.00;17.00
2543;DHT22;1116;51.502;7.414;2024-01-30T15:41:44;13.00;17.40
2543;DHT22;1116;51.502;7.414;2024-01-30T15:44:15;13.00;17.60
2543;DHT22;1116;51.502;7.414;2024-01-30T15:46:45;13.00;16.60
2543;DHT22;1116;51.502;7.414;2024-01-30T15:49:39;13.00;17.40
2543;DHT22;1116;51.502;7.414;2024-01-30T15:52:39;12.90;17.20
2543;DHT22;1116;51.502;7.414;2024-01-30T15:55:09;12.80;16.70
2543;DHT22;1116;51.502;7.414;2024-01-30T15:57:41;12.80;16.50
2543;DHT22;1116;51.502;7.414;2024-01-30T16:00:13;12.90;16.50
2543;DHT22;1116;51.502;7.414;2024-01-30T16:02:43;12.80;16.40
2543;DHT22;1116;51.502;7.414;2024-01-30T16:05:16;12.80;16.40
2543;DHT22;1116;51.502;7.414;2024-01-30T16:07:45;13.10;16.60
2543;DHT22;1116;51.502;7.414;2024-01-30T16:10:15;12.80;16.00
2543;DHT22;1116;51.502;7.414;2024-01-30T16:12:45;12.70;15.00
2543;DHT22;1116;51.502;7.414;2024-01-30T16:15:17;12.70;14.60
2543;DHT22;1116;51.502;7.414;2024-01-30T16:17:47;12.60;13.80
2543;DHT22;1116;51.502;7.414;2024-01-30T16:20:20;12.50;13.60
2543;DHT22;1116;51.502;7.414;2024-01-30T16:22:50;12.50;13.00
2543;DHT22;1116;51.502;7.414;2024-01-30T16:25:22;12.30;12.80
2543;DHT22;1116;51.502;7.414;2024-01-30T16:27:52;12.30;12.40
2543;DHT22;1116;51.502;7.414;2024-01-30T16:30:22;12.10;11.40
2543;DHT22;1116;51.502;7.414;2024-01-30T16:32:52;12.10;10.60
2543;DHT22;1116;51.502;7.414;2024-01-30T16:35:24;12.00;8.30
2543;DHT22;1116;51.502;7.414;2024-01-30T16:38:12;12.00;7.10
2543;DHT22;1116;51.502;7.414;2024-01-30T16:40:42;12.00;6.90
2543;DHT22;1116;51.502;7.414;2024-01-30T16:43:12;11.90;6.20
2543;DHT22;1116;51.502;7.414;2024-01-30T16:45:42;11.90;6.20
2543;DHT22;1116;51.502;7.414;2024-01-30T16:48:12;11.90;6.40
2543;DHT22;1116;51.502;7.414;2024-01-30T16:50:47;11.90;6.80